Time;durP1;ratioP1;P1;durP2;ratioP2;P2;SDS_P1;SDS_P2;PMS_P1;PMS_P2;Temp;Humidity;BMP_temperature;BMP_pressure;BME280_temperature;BME280_humidity;BME280_pressure;Samples;Min_cycle;Max_cycle;Signal;HPM_P1;HPM_P2
2024/01/10 00:00:08;;;;;;;9.00;4.10;;;;;;;;;;5053321;28;20480;-86
2024/01/10 00:02:34;;;;;;;7.40;4.22;;;;;;;;;;5053406;28;20036;-86
2024/01/10 00:05:00;;;;;;;9.00;3.50;;;;;;;;;;5070800;28;20039;-86
2024/01/10 00:07:26;;;;;;;7.90;4.57;;;;;;;;;;5054131;28;20491;-86
2024/01/10 00:09:52;;;;;;;8.02;4.15;;;;;;;;;;5052715;28;20036;-86
2024/01/10 00:12:18;;;;;;;8.13;3.63;;;;;;;;;;5053558;28;20048;-86
2024/01/10 00:14:44;;;;;;;7.38;4.15;;;;;;;;;;5054248;28;20453;-86
2024/01/10 00:17:10;;;;;;;5.70;3.38;;;;;;;;;;5070583;28;20059;-86
2024/01/10 00:19:36;;;;;;;9.13;3.90;;;;;;;;;;5053899;28;20046;-86
2024/01/10 00:22:02;;;;;;;6.88;3.60;;;;;;;;;;5050871;28;20043;-85
2024/01/10 00:24:28;;;;;;;6.00;3.67;;;;;;;;;;5048593;28;20127;-85
2024/01/10 00:26:55;;;;;;;8.30;3.25;;;;;;;;;;5069938;28;20044;-85
2024/01/10 00:29:21;;;;;;;7.05;3.97;;;;;;;;;;5059348;28;20036;-85
2024/01/10 00:31:47;;;;;;;7.78;4.53;;;;;;;;;;5073462;28;20040;-86
2024/01/10 00:34:14;;;;;;;6.38;4.00;;;;;;;;;;5068141;28;20037;-86
2024/01/10 00:36:40;;;;;;;6.38;3.60;;;;;;;;;;5052596;28;20036;-86
2024/01/10 00:39:06;;;;;;;6.30;3.55;;;;;;;;;;5052617;28;20069;-86
2024/01/10 00:41:32;;;;;;;7.78;3.85;;;;;;;;;;5050248;28;20057;-85
2024/01/10 00:43:58;;;;;;;8.00;4.38;;;;;;;;;;5082542;28;20082;-85
2024/01/10 00:46:24;;;;;;;8.38;4.53;;;;;;;;;;5051544;28;20123;-86
2024/01/10 00:48:50;;;;;;;7.20;4.15;;;;;;;;;;5051794;28;20056;-86
2024/01/10 00:51:16;;;;;;;5.95;3.65;;;;;;;;;;5069963;28;20040;-86
2024/01/10 00:53:43;;;;;;;9.90;3.92;;;;;;;;;;5065692;28;20049;-85
2024/01/10 00:56:09;;;;;;;7.93;4.65;;;;;;;;;;5035192;28;20028;-86
2024/01/10 00:58:36;;;;;;;5.95;3.80;;;;;;;;;;5068561;28;20552;-86
2024/01/10 01:01:02;;;;;;;10.52;4.97;;;;;;;;;;5052370;28;20037;-85
2024/01/10 01:03:28;;;;;;;9.75;4.35;;;;;;;;;;5065211;28;20119;-86
2024/01/10 01:05:54;;;;;;;7.95;4.63;;;;;;;;;;5052424;28;20071;-86
2024/01/10 01:08:20;;;;;;;6.05;4.20;;;;;;;;;;5051034;28;20032;-86
2024/01/10 01:10:46;;;;;;;10.30;4.32;;;;;;;;;;5069859;28;20032;-86
2024/01/10 01:13:12;;;;;;;8.35;4.38;;;;;;;;;;5052888;28;20044;-86
2024/01/10 01:15:38;;;;;;;5.93;3.80;;;;;;;;;;5067188;28;20710;-85
2024/01/10 01:18:04;;;;;;;7.00;4.10;;;;;;;;;;5076456;28;20111;-86
2024/01/10 01:20:30;;;;;;;8.23;3.60;;;;;;;;;;5069107;28;20036;-86
2024/01/10 01:22:56;;;;;;;9.43;4.90;;;;;;;;;;5049186;28;20060;-86
2024/01/10 01:25:22;;;;;;;6.65;3.85;;;;;;;;;;5053277;28;20079;-86
2024/01/10 01:27:48;;;;;;;6.78;3.78;;;;;;;;;;5068137;28;20134;-86
2024/01/10 01:30:14;;;;;;;8.95;4.45;;;;;;;;;;5069691;28;20037;-87
2024/01/10 01:32:41;;;;;;;6.78;4.63;;;;;;;;;;5050720;28;20080;-87
2024/01/10 01:35:07;;;;;;;7.80;3.92;;;;;;;;;;5068034;28;20040;-87
2024/01/10 01:37:33;;;;;;;9.77;5.13;;;;;;;;;;5051017;28;20438;-86
2024/01/10 01:39:59;;;;;;;9.18;4.72;;;;;;;;;;5069968;28;20410;-86
2024/01/10 01:42:28;;;;;;;6.82;3.78;;;;;;;;;;5064421;28;20407;-86
2024/01/10 01:44:54;;;;;;;6.40;4.03;;;;;;;;;;5052765;28;20051;-86
2024/01/10 01:47:20;;;;;;;7.20;3.95;;;;;;;;;;5066620;28;20116;-86
2024/01/10 01:49:46;;;;;;;7.20;4.07;;;;;;;;;;5049344;28;20040;-86
2024/01/10 01:52:12;;;;;;;6.38;3.60;;;;;;;;;;5066684;28;20051;-86
2024/01/10 01:54:38;;;;;;;8.55;3.53;;;;;;;;;;5051647;28;20036;-86
2024/01/10 01:57:04;;;;;;;8.45;4.55;;;;;;;;;;5065968;28;20044;-87
2024/01/10 01:59:31;;;;;;;9.00;3.95;;;;;;;;;;5068348;28;20109;-87
2024/01/10 02:01:59;;;;;;;6.75;4.05;;;;;;;;;;5069095;28;20064;-87
2024/01/10 02:04:26;;;;;;;8.25;4.07;;;;;;;;;;5086571;28;20044;-86
2024/01/10 02:06:52;;;;;;;4.68;3.05;;;;;;;;;;5063610;28;20037;-86
2024/01/10 02:09:18;;;;;;;8.25;3.22;;;;;;;;;;5054155;28;20036;-87
2024/01/10 02:11:44;;;;;;;7.55;4.18;;;;;;;;;;5070524;28;20033;-86
2024/01/10 02:14:10;;;;;;;8.25;4.07;;;;;;;;;;5057794;28;20059;-87
2024/01/10 02:16:36;;;;;;;8.77;3.97;;;;;;;;;;5056394;28;20082;-86
2024/01/10 02:19:17;;;;;;;5.43;3.08;;;;;;;;;;5072355;28;20112;-86
2024/01/10 02:21:43;;;;;;;7.35;4.88;;;;;;;;;;5071105;28;20384;-86
2024/01/10 02:24:09;;;;;;;7.72;3.70;;;;;;;;;;5084228;28;20028;-86
2024/01/10 02:26:35;;;;;;;5.95;3.65;;;;;;;;;;5071277;28;20089;-86
2024/01/10 02:29:01;;;;;;;7.20;3.88;;;;;;;;;;5070370;28;20100;-86
2024/01/10 02:31:27;;;;;;;5.72;3.63;;;;;;;;;;5073447;28;20079;-86
2024/01/10 02:33:53;;;;;;;6.30;3.53;;;;;;;;;;5051660;28;20452;-87
2024/01/10 02:36:19;;;;;;;5.47;2.92;;;;;;;;;;5083859;28;20041;-86
2024/01/10 02:38:45;;;;;;;7.47;3.65;;;;;;;;;;5056201;28;20113;-87
2024/01/10 02:41:11;;;;;;;6.20;3.60;;;;;;;;;;5068733;28;20108;-86
2024/01/10 02:43:37;;;;;;;6.68;2.90;;;;;;;;;;5054087;28;20036;-86
2024/01/10 02:46:03;;;;;;;5.18;3.25;;;;;;;;;;5073416;28;20043;-86
2024/01/10 02:48:29;;;;;;;7.25;3.42;;;;;;;;;;5074741;28;20098;-86
2024/01/10 02:50:55;;;;;;;7.40;3.88;;;;;;;;;;5067549;28;20037;-86
2024/01/10 02:53:21;;;;;;;5.35;4.00;;;;;;;;;;5088293;28;20059;-86
2024/01/10 02:55:49;;;;;;;6.22;3.15;;;;;;;;;;5076343;28;20119;-87
2024/01/10 02:58:15;;;;;;;7.40;3.25;;;;;;;;;;5061910;28;20111;-86
2024/01/10 03:00:41;;;;;;;5.00;3.00;;;;;;;;;;5081139;28;20041;-86
2024/01/10 03:03:07;;;;;;;6.45;3.03;;;;;;;;;;5070771;28;20045;-86
2024/01/10 03:05:33;;;;;;;6.20;3.80;;;;;;;;;;5056322;28;20384;-86
2024/01/10 03:07:59;;;;;;;7.85;3.42;;;;;;;;;;5072521;28;20036;-86
2024/01/10 03:10:25;;;;;;;7.72;3.03;;;;;;;;;;5073694;28;20029;-87
2024/01/10 03:12:51;;;;;;;4.97;2.90;;;;;;;;;;5057757;28;20036;-87
2024/01/10 03:15:17;;;;;;;7.05;2.97;;;;;;;;;;5073847;28;20032;-87
2024/01/10 03:17:43;;;;;;;5.97;3.97;;;;;;;;;;5071367;28;20043;-87
2024/01/10 03:20:09;;;;;;;5.85;3.38;;;;;;;;;;5089527;28;20399;-87
2024/01/10 03:22:35;;;;;;;8.77;4.32;;;;;;;;;;5055253;28;20127;-87
2024/01/10 03:25:01;;;;;;;5.97;3.33;;;;;;;;;;5072113;28;20136;-87
2024/01/10 03:27:27;;;;;;;6.25;3.70;;;;;;;;;;5070082;28;20127;-87
2024/01/10 03:29:53;;;;;;;7.43;3.95;;;;;;;;;;5071130;28;20398;-87
2024/01/10 03:32:19;;;;;;;6.18;4.13;;;;;;;;;;5053654;28;20051;-87
2024/01/10 03:34:46;;;;;;;6.90;4.45;;;;;;;;;;5072732;28;20131;-87
2024/01/10 03:37:12;;;;;;;11.02;4.32;;;;;;;;;;5068260;28;20399;-87
2024/01/10 03:39:38;;;;;;;7.75;3.80;;;;;;;;;;5055979;28;20045;-87
2024/01/10 03:42:04;;;;;;;7.80;4.25;;;;;;;;;;5070321;28;20036;-87
2024/01/10 03:44:30;;;;;;;6.65;4.13;;;;;;;;;;5068917;28;20059;-87
2024/01/10 03:46:56;;;;;;;7.50;4.32;;;;;;;;;;5053559;28;20391;-87
2024/01/10 03:49:22;;;;;;;9.75;3.92;;;;;;;;;;5055469;28;20185;-87
2024/01/10 03:51:48;;;;;;;7.85;3.40;;;;;;;;;;5054157;28;20040;-87
2024/01/10 03:54:14;;;;;;;6.72;3.65;;;;;;;;;;5072139;28;20118;-87
2024/01/10 03:56:40;;;;;;;8.48;4.80;;;;;;;;;;5050896;28;20570;-87
2024/01/10 03:59:06;;;;;;;11.32;5.90;;;;;;;;;;5071027;28;20036;-87
2024/01/10 04:01:32;;;;;;;9.30;4.80;;;;;;;;;;5054032;28;20052;-87
2024/01/10 04:03:58;;;;;;;8.13;4.35;;;;;;;;;;5054136;28;20040;-86
2024/01/10 04:06:24;;;;;;;10.80;5.50;;;;;;;;;;5071507;28;20441;-87
2024/01/10 04:08:50;;;;;;;7.25;4.18;;;;;;;;;;5053409;28;20032;-87
2024/01/10 04:11:16;;;;;;;6.43;3.95;;;;;;;;;;5054240;28;20123;-86
2024/01/10 04:13:42;;;;;;;4.72;3.42;;;;;;;;;;5068057;28;20064;-87
2024/01/10 04:16:08;;;;;;;8.13;4.38;;;;;;;;;;5054119;28;20037;-87
2024/01/10 04:18:34;;;;;;;6.20;3.67;;;;;;;;;;5069675;28;20040;-86
2024/01/10 04:21:00;;;;;;;9.80;4.25;;;;;;;;;;5067430;28;20505;-87
2024/01/10 04:23:27;;;;;;;6.57;4.15;;;;;;;;;;5064632;28;20037;-86
2024/01/10 04:25:55;;;;;;;6.30;3.15;;;;;;;;;;5054785;28;20145;-86
2024/01/10 04:28:22;;;;;;;6.65;4.13;;;;;;;;;;5049725;28;20051;-86
2024/01/10 04:30:48;;;;;;;8.70;4.90;;;;;;;;;;5052816;28;20040;-86
2024/01/10 04:33:14;;;;;;;8.02;5.15;;;;;;;;;;5053252;28;20752;-87
2024/01/10 04:35:40;;;;;;;8.15;4.18;;;;;;;;;;5064752;28;20475;-87
2024/01/10 04:38:05;;;;;;;9.98;5.47;;;;;;;;;;5068573;28;20035;-87
2024/01/10 04:40:32;;;;;;;8.18;4.18;;;;;;;;;;5069189;28;20044;-86
2024/01/10 04:42:58;;;;;;;7.80;3.88;;;;;;;;;;5047901;28;20044;-86
2024/01/10 04:45:24;;;;;;;8.88;4.47;;;;;;;;;;5069998;28;20040;-86
2024/01/10 04:47:50;;;;;;;7.45;3.90;;;;;;;;;;5050041;28;20040;-86
2024/01/10 04:50:16;;;;;;;7.78;4.22;;;;;;;;;;5052298;28;20391;-86
2024/01/10 04:52:42;;;;;;;7.20;3.90;;;;;;;;;;5067775;28;20044;-86
2024/01/10 04:55:08;;;;;;;6.85;4.15;;;;;;;;;;5067227;28;20028;-86
2024/01/10 04:57:34;;;;;;;8.02;4.53;;;;;;;;;;5069487;28;20115;-86
2024/01/10 05:00:00;;;;;;;4.90;3.25;;;;;;;;;;5052052;28;20086;-86
2024/01/10 05:02:26;;;;;;;7.35;4.15;;;;;;;;;;5050793;28;20048;-87
2024/01/10 05:04:52;;;;;;;6.75;4.85;;;;;;;;;;5053907;28;20036;-87
2024/01/10 05:07:20;;;;;;;9.10;3.88;;;;;;;;;;5054290;28;20028;-86
2024/01/10 05:09:46;;;;;;;8.73;4.22;;;;;;;;;;5077982;28;20051;-86
2024/01/10 05:12:12;;;;;;;7.82;4.65;;;;;;;;;;5054322;28;20052;-86
2024/01/10 05:14:38;;;;;;;6.95;4.13;;;;;;;;;;5069687;28;20036;-86
2024/01/10 05:17:04;;;;;;;12.13;5.82;;;;;;;;;;5050424;28;20052;-86
2024/01/10 05:19:30;;;;;;;8.77;4.30;;;;;;;;;;5053003;28;20032;-86
2024/01/10 05:21:57;;;;;;;11.35;4.90;;;;;;;;;;5067424;28;20479;-86
2024/01/10 05:24:23;;;;;;;8.48;4.40;;;;;;;;;;5051833;28;20032;-87
2024/01/10 05:26:51;;;;;;;7.93;4.75;;;;;;;;;;5052790;28;20151;-87
2024/01/10 05:29:19;;;;;;;9.20;4.20;;;;;;;;;;5053289;28;20407;-87
2024/01/10 05:31:46;;;;;;;9.73;4.32;;;;;;;;;;5068896;28;20046;-87
2024/01/10 05:34:12;;;;;;;8.23;4.57;;;;;;;;;;5052328;28;20046;-87
2024/01/10 05:36:38;;;;;;;9.43;4.03;;;;;;;;;;5052563;28;20115;-87
2024/01/10 05:39:04;;;;;;;6.65;4.57;;;;;;;;;;5085986;28;20083;-87
2024/01/10 05:41:30;;;;;;;8.65;4.90;;;;;;;;;;5065597;28;20044;-87
2024/01/10 05:43:56;;;;;;;8.13;4.30;;;;;;;;;;5052528;28;20120;-87
2024/01/10 05:46:22;;;;;;;7.80;4.88;;;;;;;;;;5053386;28;20479;-87
2024/01/10 05:48:48;;;;;;;7.63;4.70;;;;;;;;;;5045666;28;20048;-87
2024/01/10 05:51:14;;;;;;;8.93;4.88;;;;;;;;;;5068017;28;20036;-87
2024/01/10 05:53:40;;;;;;;11.02;4.63;;;;;;;;;;5063981;28;20040;-87
2024/01/10 05:56:07;;;;;;;8.48;4.60;;;;;;;;;;5077281;28;20092;-86
2024/01/10 05:58:33;;;;;;;8.27;4.25;;;;;;;;;;5057023;28;20033;-86
2024/01/10 06:00:59;;;;;;;7.20;3.95;;;;;;;;;;5065617;28;20039;-86
2024/01/10 06:03:25;;;;;;;10.85;5.60;;;;;;;;;;5069265;28;20471;-87
2024/01/10 06:05:51;;;;;;;7.82;5.80;;;;;;;;;;5053056;28;20460;-87
2024/01/10 06:08:17;;;;;;;11.73;5.13;;;;;;;;;;5066787;28;20067;-86
2024/01/10 06:10:43;;;;;;;7.22;5.30;;;;;;;;;;5053949;28;20032;-87
2024/01/10 06:13:09;;;;;;;7.70;4.25;;;;;;;;;;5054130;28;20044;-86
2024/01/10 06:15:35;;;;;;;9.48;5.40;;;;;;;;;;5074077;28;20040;-86
2024/01/10 06:18:01;;;;;;;9.00;3.88;;;;;;;;;;5056840;28;20043;-86
2024/01/10 06:20:27;;;;;;;10.25;4.60;;;;;;;;;;5059696;28;20070;-86
2024/01/10 06:22:53;;;;;;;8.93;4.18;;;;;;;;;;5068648;28;20041;-87
2024/01/10 06:25:19;;;;;;;7.43;4.13;;;;;;;;;;5052077;28;20051;-86
2024/01/10 06:27:45;;;;;;;9.15;4.65;;;;;;;;;;5051192;28;20051;-86
2024/01/10 06:30:11;;;;;;;11.05;5.55;;;;;;;;;;5069361;28;20094;-86
2024/01/10 06:32:37;;;;;;;8.60;4.15;;;;;;;;;;5050621;28;20044;-85
2024/01/10 06:35:04;;;;;;;10.13;4.40;;;;;;;;;;5049986;28;20400;-86
2024/01/10 06:37:30;;;;;;;9.38;5.22;;;;;;;;;;5066862;28;20037;-85
2024/01/10 06:39:56;;;;;;;6.60;4.50;;;;;;;;;;5066269;28;20128;-86
2024/01/10 06:42:22;;;;;;;8.70;4.78;;;;;;;;;;5057810;28;20040;-87
2024/01/10 06:44:48;;;;;;;7.10;4.00;;;;;;;;;;5063385;28;20041;-86
2024/01/10 06:47:14;;;;;;;8.40;4.60;;;;;;;;;;5050724;28;20040;-86
2024/01/10 06:49:40;;;;;;;6.50;4.60;;;;;;;;;;5049957;28;20032;-87
2024/01/10 06:52:07;;;;;;;9.57;5.20;;;;;;;;;;5066227;28;20127;-87
2024/01/10 06:54:35;;;;;;;8.93;5.50;;;;;;;;;;5056174;28;20032;-87
2024/01/10 06:57:01;;;;;;;8.90;4.07;;;;;;;;;;5071941;28;20123;-88
2024/01/10 06:59:27;;;;;;;7.43;4.07;;;;;;;;;;5072457;28;20527;-86
2024/01/10 07:01:53;;;;;;;10.40;5.78;;;;;;;;;;5056547;28;20113;-88
2024/01/10 07:04:22;;;;;;;9.05;4.63;;;;;;;;;;5056836;28;20037;-86
2024/01/10 07:06:48;;;;;;;7.32;4.95;;;;;;;;;;5055715;28;20089;-87
2024/01/10 07:09:19;;;;;;;7.75;4.40;;;;;;;;;;5074172;28;20040;-88
2024/01/10 07:11:45;;;;;;;6.43;4.18;;;;;;;;;;5056094;28;20068;-88
2024/01/10 07:14:11;;;;;;;9.48;4.85;;;;;;;;;;5055897;28;20447;-87
2024/01/10 07:16:38;;;;;;;10.25;5.20;;;;;;;;;;5055606;28;20067;-87
2024/01/10 07:19:04;;;;;;;8.45;5.07;;;;;;;;;;5056152;28;20456;-87
2024/01/10 07:21:30;;;;;;;12.35;4.72;;;;;;;;;;5071769;28;20044;-86
2024/01/10 07:23:56;;;;;;;8.70;4.70;;;;;;;;;;5056936;28;20040;-86
2024/01/10 07:26:22;;;;;;;8.13;3.90;;;;;;;;;;5054715;28;20040;-88
2024/01/10 07:28:48;;;;;;;8.15;3.80;;;;;;;;;;5054896;28;20044;-86
2024/01/10 07:31:14;;;;;;;7.80;4.05;;;;;;;;;;5073875;28;20047;-87
2024/01/10 07:33:40;;;;;;;7.90;4.50;;;;;;;;;;5069870;28;20367;-86
2024/01/10 07:36:07;;;;;;;9.80;4.82;;;;;;;;;;5051317;28;20093;-86
2024/01/10 07:38:33;;;;;;;7.95;4.00;;;;;;;;;;5052353;28;20564;-87
2024/01/10 07:40:59;;;;;;;8.25;4.20;;;;;;;;;;5068123;28;20045;-86
2024/01/10 07:43:26;;;;;;;9.68;5.18;;;;;;;;;;5051512;28;20048;-87
2024/01/10 07:45:53;;;;;;;8.38;4.65;;;;;;;;;;5064939;28;20040;-84
2024/01/10 07:48:20;;;;;;;6.60;4.32;;;;;;;;;;5072279;28;20041;-83
2024/01/10 07:50:46;;;;;;;6.90;4.10;;;;;;;;;;5054256;28;20119;-88
2024/01/10 07:53:13;;;;;;;7.88;4.40;;;;;;;;;;5056028;28;20124;-85
2024/01/10 07:55:39;;;;;;;10.52;5.65;;;;;;;;;;5068230;28;20044;-86
2024/01/10 07:58:05;;;;;;;6.00;3.65;;;;;;;;;;5066626;28;20036;-87
2024/01/10 08:00:31;;;;;;;11.27;4.25;;;;;;;;;;5069125;28;20119;-87
2024/01/10 08:02:58;;;;;;;7.65;3.78;;;;;;;;;;5070999;28;20069;-87
2024/01/10 08:05:24;;;;;;;8.60;4.10;;;;;;;;;;5054328;28;20090;-86
2024/01/10 08:07:50;;;;;;;9.05;4.10;;;;;;;;;;5069354;28;20068;-87
2024/01/10 08:10:16;;;;;;;6.80;3.88;;;;;;;;;;5067517;28;20071;-87
2024/01/10 08:12:42;;;;;;;10.35;4.80;;;;;;;;;;5071841;28;20067;-88
2024/01/10 08:15:08;;;;;;;7.70;4.07;;;;;;;;;;5054276;28;20071;-89
2024/01/10 08:17:37;;;;;;;9.27;4.85;;;;;;;;;;5052821;28;20037;-86
2024/01/10 08:20:03;;;;;;;10.55;4.45;;;;;;;;;;5071343;28;20037;-88
2024/01/10 08:22:30;;;;;;;9.30;4.25;;;;;;;;;;5056106;28;20044;-88
2024/01/10 08:24:56;;;;;;;9.23;4.15;;;;;;;;;;5055967;28;20090;-89
2024/01/10 08:27:22;;;;;;;7.57;5.15;;;;;;;;;;5047865;28;20041;-87
2024/01/10 08:29:48;;;;;;;8.63;4.38;;;;;;;;;;5053043;28;20044;-87
2024/01/10 08:32:15;;;;;;;7.50;4.93;;;;;;;;;;5070766;28;20060;-87
2024/01/10 08:34:41;;;;;;;10.35;6.10;;;;;;;;;;5069406;28;20044;-87
2024/01/10 08:37:07;;;;;;;9.02;4.85;;;;;;;;;;5051967;28;20040;-87
2024/01/10 08:39:33;;;;;;;6.03;3.67;;;;;;;;;;5054316;28;20044;-87
2024/01/10 08:41:59;;;;;;;8.32;5.18;;;;;;;;;;5055722;28;20036;-87
2024/01/10 08:44:25;;;;;;;8.30;5.28;;;;;;;;;;5070523;28;20044;-87
2024/01/10 08:46:52;;;;;;;8.63;5.00;;;;;;;;;;5054510;28;20051;-87
2024/01/10 08:49:18;;;;;;;9.18;5.47;;;;;;;;;;5054163;28;20037;-89
2024/01/10 08:51:46;;;;;;;9.90;5.65;;;;;;;;;;5054486;28;20033;-88
2024/01/10 08:54:16;;;;;;;11.65;5.15;;;;;;;;;;5053335;28;20036;-88
2024/01/10 08:56:43;;;;;;;7.65;4.70;;;;;;;;;;5054800;28;20086;-88
2024/01/10 08:59:10;;;;;;;9.40;5.85;;;;;;;;;;5055373;28;20094;-87
2024/01/10 09:01:36;;;;;;;9.63;4.32;;;;;;;;;;5071546;28;20032;-87
2024/01/10 09:04:03;;;;;;;8.77;4.68;;;;;;;;;;5065786;28;20048;-87
2024/01/10 09:06:31;;;;;;;9.10;5.25;;;;;;;;;;5072233;28;20123;-87
2024/01/10 09:08:57;;;;;;;10.10;5.35;;;;;;;;;;5071488;28;20044;-87
2024/01/10 09:11:24;;;;;;;8.82;4.88;;;;;;;;;;5075379;28;20049;-87
2024/01/10 09:13:50;;;;;;;8.25;4.47;;;;;;;;;;5061726;28;20017;-88
2024/01/10 09:16:18;;;;;;;10.95;5.82;;;;;;;;;;5085554;28;20020;-87
2024/01/10 09:18:44;;;;;;;10.32;5.43;;;;;;;;;;5095156;28;20037;-88
2024/01/10 09:21:10;;;;;;;10.90;6.70;;;;;;;;;;5084895;28;20033;-88
2024/01/10 09:23:37;;;;;;;8.48;4.88;;;;;;;;;;5094998;28;20040;-88
2024/01/10 09:26:03;;;;;;;10.32;4.60;;;;;;;;;;5075903;28;20036;-88
2024/01/10 09:28:29;;;;;;;9.50;4.60;;;;;;;;;;5073063;28;20037;-88
2024/01/10 09:30:55;;;;;;;11.88;6.20;;;;;;;;;;5082912;28;20051;-88
2024/01/10 09:33:22;;;;;;;14.55;6.05;;;;;;;;;;5087961;28;20460;-89
2024/01/10 09:35:50;;;;;;;10.48;5.97;;;;;;;;;;5077857;28;20032;-88
2024/01/10 09:38:16;;;;;;;11.98;7.72;;;;;;;;;;5077232;28;20071;-88
2024/01/10 09:40:43;;;;;;;9.38;4.45;;;;;;;;;;5076776;28;20028;-88
2024/01/10 09:43:09;;;;;;;11.95;5.93;;;;;;;;;;5094962;28;20100;-88
2024/01/10 09:45:36;;;;;;;10.27;5.78;;;;;;;;;;5078124;28;20072;-87
2024/01/10 09:48:02;;;;;;;14.52;5.90;;;;;;;;;;5072594;28;20510;-88
2024/01/10 09:50:28;;;;;;;11.27;5.50;;;;;;;;;;5068236;28;20049;-89
2024/01/10 09:53:00;;;;;;;8.48;5.13;;;;;;;;;;5052183;28;20037;-88
2024/01/10 09:55:26;;;;;;;10.85;5.55;;;;;;;;;;5057547;28;20048;-88
2024/01/10 09:57:53;;;;;;;8.70;4.82;;;;;;;;;;5054169;28;20456;-88
2024/01/10 10:00:19;;;;;;;7.60;4.25;;;;;;;;;;5063667;28;20078;-90
2024/01/10 10:02:49;;;;;;;10.02;5.43;;;;;;;;;;5054029;28;20045;-90
2024/01/10 10:05:16;;;;;;;10.98;5.60;;;;;;;;;;5050211;28;20032;-88
2024/01/10 10:07:49;;;;;;;11.43;6.03;;;;;;;;;;5068993;28;20097;-88
2024/01/10 10:10:15;;;;;;;9.60;4.82;;;;;;;;;;5069474;28;20130;-89
2024/01/10 10:12:47;;;;;;;10.50;4.82;;;;;;;;;;5051468;28;20044;-88
2024/01/10 10:15:15;;;;;;;8.60;3.95;;;;;;;;;;5053296;28;20032;-89
2024/01/10 10:17:46;;;;;;;10.23;5.40;;;;;;;;;;5067384;28;20117;-89
2024/01/10 10:20:14;;;;;;;10.25;6.10;;;;;;;;;;5054559;28;20092;-86
2024/01/10 10:22:40;;;;;;;12.98;6.55;;;;;;;;;;5068920;28;20047;-85
2024/01/10 10:25:06;;;;;;;9.18;4.85;;;;;;;;;;5068538;28;20036;-84
2024/01/10 10:27:32;;;;;;;12.45;5.25;;;;;;;;;;5057988;28;20079;-84
2024/01/10 10:29:58;;;;;;;10.68;5.60;;;;;;;;;;5058959;28;20571;-84
2024/01/10 10:32:24;;;;;;;9.35;5.43;;;;;;;;;;5077531;28;20072;-85
2024/01/10 10:34:50;;;;;;;12.55;6.05;;;;;;;;;;5077611;28;20044;-85
2024/01/10 10:37:16;;;;;;;10.05;4.80;;;;;;;;;;5074088;28;20036;-85
2024/01/10 10:39:42;;;;;;;12.75;5.90;;;;;;;;;;5060189;28;20048;-85
2024/01/10 10:42:08;;;;;;;11.50;5.90;;;;;;;;;;5063542;28;20036;-85
2024/01/10 10:44:36;;;;;;;11.68;5.70;;;;;;;;;;5064941;28;20040;-85
2024/01/10 10:47:05;;;;;;;10.48;5.82;;;;;;;;;;5076384;28;20407;-85
2024/01/10 10:49:32;;;;;;;11.05;6.07;;;;;;;;;;5058047;28;20036;-85
2024/01/10 10:52:00;;;;;;;10.05;5.72;;;;;;;;;;5057298;28;20032;-85
2024/01/10 10:54:29;;;;;;;11.00;5.40;;;;;;;;;;5072670;28;20070;-85
2024/01/10 10:56:58;;;;;;;11.40;5.30;;;;;;;;;;5080709;28;20044;-85
2024/01/10 10:59:26;;;;;;;9.75;4.55;;;;;;;;;;5078698;28;20036;-84
2024/01/10 11:01:52;;;;;;;8.90;4.53;;;;;;;;;;5073635;28;20135;-85
2024/01/10 11:04:19;;;;;;;11.32;6.07;;;;;;;;;;5074116;28;20051;-85
2024/01/10 11:06:45;;;;;;;10.13;4.43;;;;;;;;;;5073395;28;20514;-85
2024/01/10 11:09:12;;;;;;;9.95;5.20;;;;;;;;;;5075010;28;20090;-85
2024/01/10 11:11:57;;;;;;;8.80;4.45;;;;;;;;;;5073100;28;20130;-85
2024/01/10 11:14:42;;;;;;;7.88;4.75;;;;;;;;;;5068465;28;20044;-85
2024/01/10 11:17:19;;;;;;;6.72;4.00;;;;;;;;;;5071776;28;20032;-85
2024/01/10 11:20:04;;;;;;;9.18;4.78;;;;;;;;;;5066285;28;22359;-87
2024/01/10 11:22:39;;;;;;;10.18;4.45;;;;;;;;;;5070269;28;20055;-87
2024/01/10 11:25:06;;;;;;;6.57;3.38;;;;;;;;;;5070826;28;20048;-87
2024/01/10 11:27:32;;;;;;;8.75;4.25;;;;;;;;;;5071353;28;21064;-88
2024/01/10 11:29:58;;;;;;;10.95;4.78;;;;;;;;;;5074990;28;20094;-87
2024/01/10 11:32:25;;;;;;;5.32;2.65;;;;;;;;;;5055765;28;20053;-84
2024/01/10 11:34:55;;;;;;;8.55;3.30;;;;;;;;;;5068219;28;20052;-87
2024/01/10 11:37:21;;;;;;;7.45;3.95;;;;;;;;;;5081363;28;20497;-84
2024/01/10 11:39:47;;;;;;;7.15;3.15;;;;;;;;;;5054211;28;20123;-87
2024/01/10 11:42:22;;;;;;;8.25;3.65;;;;;;;;;;5072188;28;20028;-87
2024/01/10 11:44:49;;;;;;;7.10;3.92;;;;;;;;;;5071793;28;20060;-88
2024/01/10 11:47:16;;;;;;;7.65;3.97;;;;;;;;;;5068903;28;20037;-86
2024/01/10 11:49:53;;;;;;;7.80;3.72;;;;;;;;;;5054524;28;20402;-87
2024/01/10 11:52:21;;;;;;;7.03;3.72;;;;;;;;;;5069205;28;20086;-87
2024/01/10 11:54:48;;;;;;;7.03;3.95;;;;;;;;;;5071319;28;20554;-87
2024/01/10 11:57:24;;;;;;;12.73;5.05;;;;;;;;;;5071562;28;20089;-87
2024/01/10 11:59:53;;;;;;;9.73;5.07;;;;;;;;;;5054177;28;20036;-87
2024/01/10 12:02:20;;;;;;;9.07;4.25;;;;;;;;;;5056044;28;20032;-86
2024/01/10 12:04:46;;;;;;;7.85;3.72;;;;;;;;;;5056338;28;20029;-87
2024/01/10 12:07:13;;;;;;;10.52;5.05;;;;;;;;;;5056149;28;20040;-88
2024/01/10 12:09:39;;;;;;;7.47;3.83;;;;;;;;;;5072726;28;20036;-87
2024/01/10 12:12:06;;;;;;;8.50;4.00;;;;;;;;;;5073661;28;20036;-88
2024/01/10 12:14:32;;;;;;;7.38;4.28;;;;;;;;;;5072407;28;20064;-87
2024/01/10 12:17:01;;;;;;;8.20;4.95;;;;;;;;;;5074929;28;20048;-87
2024/01/10 12:19:28;;;;;;;9.68;4.95;;;;;;;;;;5072273;28;22855;-87
2024/01/10 12:21:54;;;;;;;8.07;3.60;;;;;;;;;;5054703;28;20119;-86
2024/01/10 12:24:21;;;;;;;9.82;4.05;;;;;;;;;;5073599;28;20051;-88
2024/01/10 12:26:47;;;;;;;6.97;3.58;;;;;;;;;;5072621;28;20044;-88
2024/01/10 12:29:13;;;;;;;11.18;4.78;;;;;;;;;;5055137;28;20130;-89
2024/01/10 12:31:40;;;;;;;7.63;4.07;;;;;;;;;;5070276;28;20060;-89
2024/01/10 12:34:09;;;;;;;8.68;3.65;;;;;;;;;;5071064;28;20036;-87
2024/01/10 12:36:35;;;;;;;10.52;4.03;;;;;;;;;;5086505;28;20044;-87
2024/01/10 12:39:01;;;;;;;8.90;3.90;;;;;;;;;;5070967;28;20032;-86
2024/01/10 12:41:28;;;;;;;7.55;3.67;;;;;;;;;;5070523;28;20492;-86
2024/01/10 12:43:55;;;;;;;12.18;5.18;;;;;;;;;;5055175;28;20082;-87
2024/01/10 12:46:21;;;;;;;8.15;3.80;;;;;;;;;;5072017;28;20040;-87
2024/01/10 12:48:58;;;;;;;10.00;3.60;;;;;;;;;;5057533;28;20040;-87
2024/01/10 12:51:24;;;;;;;;;;;;;;;;;;5053066;28;20104;-86
2024/01/10 12:53:50;;;;;;;5.75;2.90;;;;;;;;;;5054046;28;20019;-86
2024/01/10 12:56:16;;;;;;;6.45;3.05;;;;;;;;;;5072125;28;20040;-85
2024/01/10 12:58:42;;;;;;;9.25;4.63;;;;;;;;;;5050346;28;20064;-85
2024/01/10 13:01:14;;;;;;;8.52;3.00;;;;;;;;;;5066437;28;20058;-86
2024/01/10 13:03:40;;;;;;;5.82;2.92;;;;;;;;;;5048864;28;20036;-86
2024/01/10 13:06:06;;;;;;;5.95;2.72;;;;;;;;;;5069635;28;20044;-86
2024/01/10 13:08:33;;;;;;;9.18;3.42;;;;;;;;;;5036841;28;20104;-85
2024/01/10 13:11:07;;;;;;;6.30;2.90;;;;;;;;;;5071830;28;20044;-87
2024/01/10 13:13:33;;;;;;;8.10;2.92;;;;;;;;;;5069220;28;20044;-85
2024/01/10 13:15:59;;;;;;;6.65;2.80;;;;;;;;;;5067201;28;20068;-84
2024/01/10 13:18:28;;;;;;;10.73;4.00;;;;;;;;;;5070613;28;20040;-85
2024/01/10 13:20:54;;;;;;;5.65;2.72;;;;;;;;;;5069175;28;20037;-85
2024/01/10 13:23:22;;;;;;;5.90;2.88;;;;;;;;;;5051840;28;20052;-84
2024/01/10 13:25:48;;;;;;;9.63;3.58;;;;;;;;;;5073058;28;20156;-83
2024/01/10 13:28:15;;;;;;;6.22;3.20;;;;;;;;;;5072634;28;20059;-84
2024/01/10 13:30:42;;;;;;;7.03;3.60;;;;;;;;;;5072402;28;20050;-84
2024/01/10 13:33:09;;;;;;;5.25;3.10;;;;;;;;;;5069934;28;20061;-83
2024/01/10 13:35:35;;;;;;;8.30;3.28;;;;;;;;;;5064121;28;20056;-84
2024/01/10 13:38:01;;;;;;;4.18;2.42;;;;;;;;;;5071506;28;20040;-84
2024/01/10 13:40:27;;;;;;;6.78;3.38;;;;;;;;;;5073874;28;20127;-83
2024/01/10 13:42:53;;;;;;;6.38;3.75;;;;;;;;;;5072073;28;20079;-84
2024/01/10 13:45:20;;;;;;;7.03;2.97;;;;;;;;;;5064351;28;20036;-84
2024/01/10 13:47:48;;;;;;;9.02;3.88;;;;;;;;;;5067821;28;20369;-84
2024/01/10 13:50:14;;;;;;;7.95;4.15;;;;;;;;;;5085199;28;20368;-82
2024/01/10 13:52:40;;;;;;;8.80;3.65;;;;;;;;;;5072471;28;20107;-83
2024/01/10 13:55:07;;;;;;;5.50;3.10;;;;;;;;;;5071607;28;20037;-83
2024/01/10 13:57:33;;;;;;;5.88;2.70;;;;;;;;;;5071911;28;20062;-83
2024/01/10 13:59:59;;;;;;;7.85;3.50;;;;;;;;;;5054621;28;20076;-84
2024/01/10 14:02:25;;;;;;;5.22;3.38;;;;;;;;;;5075192;28;20479;-83
2024/01/10 14:04:54;;;;;;;7.47;2.90;;;;;;;;;;5069004;28;20041;-83
2024/01/10 14:07:20;;;;;;;6.60;3.22;;;;;;;;;;5067512;28;20099;-85
2024/01/10 14:09:46;;;;;;;6.15;3.03;;;;;;;;;;5072167;28;20032;-84
2024/01/10 14:12:12;;;;;;;4.97;2.72;;;;;;;;;;5090853;28;20130;-83
2024/01/10 14:14:38;;;;;;;7.22;2.88;;;;;;;;;;5067629;28;20040;-83
2024/01/10 14:17:04;;;;;;;6.22;3.05;;;;;;;;;;5077418;28;20488;-83
2024/01/10 14:19:30;;;;;;;6.32;2.78;;;;;;;;;;5057948;28;20055;-83
2024/01/10 14:21:58;;;;;;;5.20;2.47;;;;;;;;;;5079492;28;20099;-83
2024/01/10 14:24:24;;;;;;;7.50;3.45;;;;;;;;;;5076434;28;20045;-83
2024/01/10 14:26:50;;;;;;;6.50;3.03;;;;;;;;;;5092480;28;20044;-83
2024/01/10 14:29:16;;;;;;;8.40;3.45;;;;;;;;;;5058273;28;20090;-83
2024/01/10 14:31:42;;;;;;;7.78;2.55;;;;;;;;;;5071917;28;20044;-83
2024/01/10 14:34:09;;;;;;;7.43;2.58;;;;;;;;;;5072239;28;20052;-83
2024/01/10 14:36:35;;;;;;;7.47;2.85;;;;;;;;;;5072917;28;20078;-82